sensor_id;sensor_type;location;lat;lon;timestamp;P1;durP1;ratioP1;P2;durP2;ratioP2
72493;SDS011;60520;49.182;-0.348;2024-02-21T00:02:07;1.17;;;0.57;;
72493;SDS011;60520;49.182;-0.348;2024-02-21T00:04:35;0.65;;;0.50;;
72493;SDS011;60520;49.182;-0.348;2024-02-21T00:07:03;1.50;;;0.80;;
72493;SDS011;60520;49.182;-0.348;2024-02-21T00:09:30;2.42;;;0.88;;
72493;SDS011;60520;49.182;-0.348;2024-02-21T00:11:58;1.27;;;0.77;;
72493;SDS011;60520;49.182;-0.348;2024-02-21T00:14:26;1.08;;;0.60;;
72493;SDS011;60520;49.182;-0.348;2024-02-21T00:16:53;1.88;;;0.90;;
72493;SDS011;60520;49.182;-0.348;2024-02-21T00:19:20;1.23;;;0.55;;
72493;SDS011;60520;49.182;-0.348;2024-02-21T00:21:49;1.00;;;0.60;;
72493;SDS011;60520;49.182;-0.348;2024-02-21T00:24:16;1.10;;;0.70;;
72493;SDS011;60520;49.182;-0.348;2024-02-21T00:26:43;1.27;;;0.70;;
72493;SDS011;60520;49.182;-0.348;2024-02-21T00:29:10;1.52;;;0.68;;
72493;SDS011;60520;49.182;-0.348;2024-02-21T00:31:37;2.97;;;0.60;;
72493;SDS011;60520;49.182;-0.348;2024-02-21T00:34:04;2.10;;;0.57;;
72493;SDS011;60520;49.182;-0.348;2024-02-21T00:36:32;1.48;;;0.80;;
72493;SDS011;60520;49.182;-0.348;2024-02-21T00:39:00;1.05;;;0.70;;
72493;SDS011;60520;49.182;-0.348;2024-02-21T00:41:27;1.50;;;0.65;;
72493;SDS011;60520;49.182;-0.348;2024-02-21T00:43:55;1.23;;;0.57;;
72493;SDS011;60520;49.182;-0.348;2024-02-21T00:46:22;1.15;;;0.73;;
72493;SDS011;60520;49.182;-0.348;2024-02-21T00:48:49;1.20;;;0.90;;
72493;SDS011;60520;49.182;-0.348;2024-02-21T00:51:16;0.85;;;0.50;;
72493;SDS011;60520;49.182;-0.348;2024-02-21T00:53:43;2.05;;;0.77;;
72493;SDS011;60520;49.182;-0.348;2024-02-21T00:56:12;1.17;;;0.70;;
72493;SDS011;60520;49.182;-0.348;2024-02-21T00:58:39;1.35;;;0.70;;
72493;SDS011;60520;49.182;-0.348;2024-02-21T01:01:06;1.98;;;0.70;;
72493;SDS011;60520;49.182;-0.348;2024-02-21T01:03:33;1.25;;;0.60;;
72493;SDS011;60520;49.182;-0.348;2024-02-21T01:06:00;1.67;;;0.77;;
72493;SDS011;60520;49.182;-0.348;2024-02-21T01:08:27;1.25;;;0.70;;
72493;SDS011;60520;49.182;-0.348;2024-02-21T01:10:54;1.33;;;0.73;;
72493;SDS011;60520;49.182;-0.348;2024-02-21T01:13:23;1.33;;;0.80;;
72493;SDS011;60520;49.182;-0.348;2024-02-21T01:15:50;0.82;;;0.57;;
72493;SDS011;60520;49.182;-0.348;2024-02-21T01:18:17;1.40;;;0.80;;
72493;SDS011;60520;49.182;-0.348;2024-02-21T01:20:44;1.15;;;0.80;;
72493;SDS011;60520;49.182;-0.348;2024-02-21T01:23:11;1.70;;;0.68;;
72493;SDS011;60520;49.182;-0.348;2024-02-21T01:25:39;1.10;;;0.60;;
72493;SDS011;60520;49.182;-0.348;2024-02-21T01:28:06;1.40;;;0.60;;
72493;SDS011;60520;49.182;-0.348;2024-02-21T01:30:34;1.20;;;0.73;;
72493;SDS011;60520;49.182;-0.348;2024-02-21T01:33:02;0.98;;;0.57;;
72493;SDS011;60520;49.182;-0.348;2024-02-21T01:35:29;1.05;;;0.60;;
72493;SDS011;60520;49.182;-0.348;2024-02-21T01:37:57;1.27;;;0.50;;
72493;SDS011;60520;49.182;-0.348;2024-02-21T01:40:24;2.03;;;0.82;;
72493;SDS011;60520;49.182;-0.348;2024-02-21T01:42:52;0.90;;;0.60;;
72493;SDS011;60520;49.182;-0.348;2024-02-21T01:45:20;1.00;;;0.57;;
72493;SDS011;60520;49.182;-0.348;2024-02-21T01:47:48;0.77;;;0.60;;
72493;SDS011;60520;49.182;-0.348;2024-02-21T01:50:16;1.10;;;0.60;;
72493;SDS011;60520;49.182;-0.348;2024-02-21T01:52:43;0.80;;;0.50;;
72493;SDS011;60520;49.182;-0.348;2024-02-21T01:55:12;1.77;;;0.70;;
72493;SDS011;60520;49.182;-0.348;2024-02-21T01:57:40;1.20;;;0.82;;
72493;SDS011;60520;49.182;-0.348;2024-02-21T02:00:08;1.33;;;0.70;;
72493;SDS011;60520;49.182;-0.348;2024-02-21T02:02:37;1.58;;;0.70;;
72493;SDS011;60520;49.182;-0.348;2024-02-21T02:05:06;1.45;;;0.73;;
72493;SDS011;60520;49.182;-0.348;2024-02-21T02:07:33;1.13;;;0.70;;
72493;SDS011;60520;49.182;-0.348;2024-02-21T02:10:01;1.23;;;0.60;;
72493;SDS011;60520;49.182;-0.348;2024-02-21T02:12:28;1.27;;;0.70;;
72493;SDS011;60520;49.182;-0.348;2024-02-21T02:14:59;1.33;;;0.57;;
72493;SDS011;60520;49.182;-0.348;2024-02-21T02:17:26;1.08;;;0.60;;
72493;SDS011;60520;49.182;-0.348;2024-02-21T02:19:53;1.83;;;0.80;;
72493;SDS011;60520;49.182;-0.348;2024-02-21T02:22:22;1.42;;;0.65;;
72493;SDS011;60520;49.182;-0.348;2024-02-21T02:24:50;1.00;;;0.57;;
72493;SDS011;60520;49.182;-0.348;2024-02-21T02:27:18;1.42;;;0.60;;
72493;SDS011;60520;49.182;-0.348;2024-02-21T02:29:45;1.95;;;0.80;;
72493;SDS011;60520;49.182;-0.348;2024-02-21T02:32:12;1.00;;;0.57;;
72493;SDS011;60520;49.182;-0.348;2024-02-21T02:34:39;0.95;;;0.65;;
72493;SDS011;60520;49.182;-0.348;2024-02-21T02:37:06;1.85;;;0.90;;
72493;SDS011;60520;49.182;-0.348;2024-02-21T02:39:34;1.05;;;0.60;;
72493;SDS011;60520;49.182;-0.348;2024-02-21T02:42:03;2.00;;;0.55;;
72493;SDS011;60520;49.182;-0.348;2024-02-21T02:44:30;1.25;;;0.50;;
72493;SDS011;60520;49.182;-0.348;2024-02-21T02:46:58;0.95;;;0.50;;
72493;SDS011;60520;49.182;-0.348;2024-02-21T02:49:25;1.17;;;0.50;;
72493;SDS011;60520;49.182;-0.348;2024-02-21T02:51:52;1.17;;;0.70;;
72493;SDS011;60520;49.182;-0.348;2024-02-21T02:54:19;1.75;;;0.70;;
72493;SDS011;60520;49.182;-0.348;2024-02-21T02:56:46;1.20;;;0.60;;
72493;SDS011;60520;49.182;-0.348;2024-02-21T02:59:15;0.90;;;0.50;;
72493;SDS011;60520;49.182;-0.348;2024-02-21T03:01:42;1.35;;;0.73;;
72493;SDS011;60520;49.182;-0.348;2024-02-21T03:04:08;0.77;;;0.57;;
72493;SDS011;60520;49.182;-0.348;2024-02-21T03:06:35;1.17;;;0.50;;
72493;SDS011;60520;49.182;-0.348;2024-02-21T03:09:02;0.80;;;0.57;;
72493;SDS011;60520;49.182;-0.348;2024-02-21T03:11:33;1.60;;;0.60;;
72493;SDS011;60520;49.182;-0.348;2024-02-21T03:14:01;3.00;;;0.93;;
72493;SDS011;60520;49.182;-0.348;2024-02-21T03:16:30;1.40;;;0.63;;
72493;SDS011;60520;49.182;-0.348;2024-02-21T03:18:57;2.80;;;0.60;;
72493;SDS011;60520;49.182;-0.348;2024-02-21T03:21:24;1.17;;;0.60;;
72493;SDS011;60520;49.182;-0.348;2024-02-21T03:23:51;1.67;;;0.70;;
72493;SDS011;60520;49.182;-0.348;2024-02-21T03:26:18;1.05;;;0.70;;
72493;SDS011;60520;49.182;-0.348;2024-02-21T03:28:45;0.77;;;0.60;;
72493;SDS011;60520;49.182;-0.348;2024-02-21T03:31:13;1.58;;;0.73;;
72493;SDS011;60520;49.182;-0.348;2024-02-21T03:33:42;0.80;;;0.50;;
72493;SDS011;60520;49.182;-0.348;2024-02-21T03:36:12;1.65;;;0.63;;
72493;SDS011;60520;49.182;-0.348;2024-02-21T03:38:40;0.93;;;0.57;;
72493;SDS011;60520;49.182;-0.348;2024-02-21T03:41:07;0.93;;;0.45;;
72493;SDS011;60520;49.182;-0.348;2024-02-21T03:43:34;1.45;;;0.50;;
72493;SDS011;60520;49.182;-0.348;2024-02-21T03:46:01;0.73;;;0.40;;
72493;SDS011;60520;49.182;-0.348;2024-02-21T03:48:28;0.77;;;0.50;;
72493;SDS011;60520;49.182;-0.348;2024-02-21T03:50:57;0.80;;;0.50;;
72493;SDS011;60520;49.182;-0.348;2024-02-21T03:53:24;1.92;;;0.70;;
72493;SDS011;60520;49.182;-0.348;2024-02-21T03:55:51;0.98;;;0.60;;
72493;SDS011;60520;49.182;-0.348;2024-02-21T03:58:19;1.42;;;0.65;;
72493;SDS011;60520;49.182;-0.348;2024-02-21T04:00:46;0.90;;;0.50;;
72493;SDS011;60520;49.182;-0.348;2024-02-21T04:03:14;1.48;;;0.50;;
72493;SDS011;60520;49.182;-0.348;2024-02-21T04:05:41;1.63;;;0.50;;
72493;SDS011;60520;49.182;-0.348;2024-02-21T04:08:09;0.80;;;0.50;;
72493;SDS011;60520;49.182;-0.348;2024-02-21T04:10:36;1.20;;;0.43;;
72493;SDS011;60520;49.182;-0.348;2024-02-21T04:13:04;0.82;;;0.60;;
72493;SDS011;60520;49.182;-0.348;2024-02-21T04:15:32;0.60;;;0.40;;
72493;SDS011;60520;49.182;-0.348;2024-02-21T04:17:59;0.73;;;0.40;;
72493;SDS011;60520;49.182;-0.348;2024-02-21T04:20:26;0.60;;;0.40;;
72493;SDS011;60520;49.182;-0.348;2024-02-21T04:22:53;1.50;;;0.60;;
72493;SDS011;60520;49.182;-0.348;2024-02-21T04:25:22;1.30;;;0.57;;
72493;SDS011;60520;49.182;-0.348;2024-02-21T04:27:49;0.88;;;0.57;;
72493;SDS011;60520;49.182;-0.348;2024-02-21T04:30:16;0.73;;;0.40;;
72493;SDS011;60520;49.182;-0.348;2024-02-21T04:32:44;1.17;;;0.57;;
72493;SDS011;60520;49.182;-0.348;2024-02-21T04:35:11;1.27;;;0.50;;
72493;SDS011;60520;49.182;-0.348;2024-02-21T04:37:38;0.65;;;0.45;;
72493;SDS011;60520;49.182;-0.348;2024-02-21T04:40:06;0.73;;;0.47;;
72493;SDS011;60520;49.182;-0.348;2024-02-21T04:42:35;0.57;;;0.50;;
72493;SDS011;60520;49.182;-0.348;2024-02-21T04:45:02;0.40;;;0.30;;
72493;SDS011;60520;49.182;-0.348;2024-02-21T04:47:30;0.60;;;0.43;;
72493;SDS011;60520;49.182;-0.348;2024-02-21T04:49:57;1.48;;;0.57;;
72493;SDS011;60520;49.182;-0.348;2024-02-21T04:52:24;1.23;;;0.60;;
72493;SDS011;60520;49.182;-0.348;2024-02-21T04:54:51;1.10;;;0.55;;
72493;SDS011;60520;49.182;-0.348;2024-02-21T04:57:18;1.05;;;0.50;;
72493;SDS011;60520;49.182;-0.348;2024-02-21T04:59:47;0.47;;;0.40;;
72493;SDS011;60520;49.182;-0.348;2024-02-21T05:02:14;0.95;;;0.50;;
72493;SDS011;60520;49.182;-0.348;2024-02-21T05:04:41;0.60;;;0.40;;
72493;SDS011;60520;49.182;-0.348;2024-02-21T05:07:09;0.55;;;0.43;;
72493;SDS011;60520;49.182;-0.348;2024-02-21T05:09:37;0.68;;;0.43;;
72493;SDS011;60520;49.182;-0.348;2024-02-21T05:12:04;0.82;;;0.40;;
72493;SDS011;60520;49.182;-0.348;2024-02-21T05:14:31;1.08;;;0.40;;
72493;SDS011;60520;49.182;-0.348;2024-02-21T05:16:59;0.82;;;0.55;;
72493;SDS011;60520;49.182;-0.348;2024-02-21T05:19:27;0.57;;;0.30;;
72493;SDS011;60520;49.182;-0.348;2024-02-21T05:21:54;0.50;;;0.50;;
72493;SDS011;60520;49.182;-0.348;2024-02-21T05:24:21;0.43;;;0.30;;
72493;SDS011;60520;49.182;-0.348;2024-02-21T05:26:48;0.68;;;0.43;;
72493;SDS011;60520;49.182;-0.348;2024-02-21T05:29:15;1.13;;;0.50;;
72493;SDS011;60520;49.182;-0.348;2024-02-21T05:31:54;0.40;;;0.30;;
72493;SDS011;60520;49.182;-0.348;2024-02-21T05:34:22;0.52;;;0.40;;
72493;SDS011;60520;49.182;-0.348;2024-02-21T05:36:50;0.57;;;0.43;;
72493;SDS011;60520;49.182;-0.348;2024-02-21T05:39:17;0.60;;;0.40;;
72493;SDS011;60520;49.182;-0.348;2024-02-21T05:41:47;0.80;;;0.30;;
72493;SDS011;60520;49.182;-0.348;2024-02-21T05:44:15;0.55;;;0.40;;
72493;SDS011;60520;49.182;-0.348;2024-02-21T05:46:42;0.68;;;0.45;;
72493;SDS011;60520;49.182;-0.348;2024-02-21T05:49:09;0.68;;;0.38;;
72493;SDS011;60520;49.182;-0.348;2024-02-21T05:51:38;0.60;;;0.40;;
72493;SDS011;60520;49.182;-0.348;2024-02-21T05:54:05;1.02;;;0.60;;
72493;SDS011;60520;49.182;-0.348;2024-02-21T05:56:32;0.70;;;0.30;;
72493;SDS011;60520;49.182;-0.348;2024-02-21T05:58:59;1.00;;;0.40;;
72493;SDS011;60520;49.182;-0.348;2024-02-21T06:01:27;0.52;;;0.25;;
72493;SDS011;60520;49.182;-0.348;2024-02-21T06:03:54;0.60;;;0.32;;
72493;SDS011;60520;49.182;-0.348;2024-02-21T06:06:21;0.50;;;0.40;;
72493;SDS011;60520;49.182;-0.348;2024-02-21T06:08:50;0.50;;;0.40;;
72493;SDS011;60520;49.182;-0.348;2024-02-21T06:11:17;0.60;;;0.40;;
72493;SDS011;60520;49.182;-0.348;2024-02-21T06:13:44;0.55;;;0.25;;
72493;SDS011;60520;49.182;-0.348;2024-02-21T06:16:11;0.40;;;0.38;;
72493;SDS011;60520;49.182;-0.348;2024-02-21T06:18:38;0.45;;;0.30;;
72493;SDS011;60520;49.182;-0.348;2024-02-21T06:21:06;0.43;;;0.30;;
72493;SDS011;60520;49.182;-0.348;2024-02-21T06:23:33;0.43;;;0.32;;
72493;SDS011;60520;49.182;-0.348;2024-02-21T06:26:01;0.70;;;0.30;;
72493;SDS011;60520;49.182;-0.348;2024-02-21T06:28:28;0.60;;;0.40;;
72493;SDS011;60520;49.182;-0.348;2024-02-21T06:30:55;0.40;;;0.28;;
72493;SDS011;60520;49.182;-0.348;2024-02-21T06:33:23;0.40;;;0.30;;
72493;SDS011;60520;49.182;-0.348;2024-02-21T06:35:50;0.77;;;0.30;;
72493;SDS011;60520;49.182;-0.348;2024-02-21T06:38:18;0.20;;;0.20;;
72493;SDS011;60520;49.182;-0.348;2024-02-21T06:40:46;0.35;;;0.20;;
72493;SDS011;60520;49.182;-0.348;2024-02-21T06:43:19;0.35;;;0.20;;
72493;SDS011;60520;49.182;-0.348;2024-02-21T06:45:47;0.30;;;0.20;;
72493;SDS011;60520;49.182;-0.348;2024-02-21T06:48:16;0.40;;;0.20;;
72493;SDS011;60520;49.182;-0.348;2024-02-21T06:50:44;0.43;;;0.20;;
72493;SDS011;60520;49.182;-0.348;2024-02-21T06:53:11;0.32;;;0.20;;
72493;SDS011;60520;49.182;-0.348;2024-02-21T06:55:38;0.47;;;0.30;;
72493;SDS011;60520;49.182;-0.348;2024-02-21T06:58:05;0.25;;;0.20;;
72493;SDS011;60520;49.182;-0.348;2024-02-21T07:00:38;0.20;;;0.20;;
72493;SDS011;60520;49.182;-0.348;2024-02-21T07:03:05;0.50;;;0.20;;
72493;SDS011;60520;49.182;-0.348;2024-02-21T07:05:32;0.20;;;0.15;;
72493;SDS011;60520;49.182;-0.348;2024-02-21T07:07:59;0.10;;;0.10;;
72493;SDS011;60520;49.182;-0.348;2024-02-21T07:10:26;0.52;;;0.20;;
72493;SDS011;60520;49.182;-0.348;2024-02-21T07:12:54;0.10;;;0.10;;
72493;SDS011;60520;49.182;-0.348;2024-02-21T07:15:26;0.10;;;0.10;;
72493;SDS011;60520;49.182;-0.348;2024-02-21T07:17:56;0.08;;;0.08;;
72493;SDS011;60520;49.182;-0.348;2024-02-21T07:20:23;0.10;;;0.10;;
72493;SDS011;60520;49.182;-0.348;2024-02-21T07:22:50;0.10;;;0.10;;
72493;SDS011;60520;49.182;-0.348;2024-02-21T07:25:17;0.10;;;0.10;;
72493;SDS011;60520;49.182;-0.348;2024-02-21T07:27:44;0.10;;;0.10;;
72493;SDS011;60520;49.182;-0.348;2024-02-21T07:30:12;0.10;;;0.10;;
72493;SDS011;60520;49.182;-0.348;2024-02-21T07:32:39;0.05;;;0.05;;
72493;SDS011;60520;49.182;-0.348;2024-02-21T07:35:08;0.13;;;0.10;;
72493;SDS011;60520;49.182;-0.348;2024-02-21T07:37:36;0.00;;;0.00;;
72493;SDS011;60520;49.182;-0.348;2024-02-21T07:40:05;0.22;;;0.15;;
72493;SDS011;60520;49.182;-0.348;2024-02-21T07:42:32;1.17;;;0.20;;
72493;SDS011;60520;49.182;-0.348;2024-02-21T07:45:00;0.00;;;0.00;;
72493;SDS011;60520;49.182;-0.348;2024-02-21T07:47:28;0.13;;;0.13;;
72493;SDS011;60520;49.182;-0.348;2024-02-21T07:49:55;0.10;;;0.00;;
72493;SDS011;60520;49.182;-0.348;2024-02-21T07:52:24;0.20;;;0.10;;
72493;SDS011;60520;49.182;-0.348;2024-02-21T07:54:51;0.20;;;0.10;;
72493;SDS011;60520;49.182;-0.348;2024-02-21T07:57:18;0.30;;;0.10;;
72493;SDS011;60520;49.182;-0.348;2024-02-21T07:59:45;0.20;;;0.10;;
72493;SDS011;60520;49.182;-0.348;2024-02-21T08:02:13;0.15;;;0.13;;
72493;SDS011;60520;49.182;-0.348;2024-02-21T08:04:40;0.30;;;0.10;;
72493;SDS011;60520;49.182;-0.348;2024-02-21T08:07:07;0.28;;;0.10;;
72493;SDS011;60520;49.182;-0.348;2024-02-21T08:09:36;0.03;;;0.03;;
72493;SDS011;60520;49.182;-0.348;2024-02-21T08:12:04;0.10;;;0.10;;
72493;SDS011;60520;49.182;-0.348;2024-02-21T08:14:32;0.10;;;0.10;;
72493;SDS011;60520;49.182;-0.348;2024-02-21T08:16:59;0.10;;;0.10;;
72493;SDS011;60520;49.182;-0.348;2024-02-21T08:19:26;0.10;;;0.10;;
72493;SDS011;60520;49.182;-0.348;2024-02-21T08:21:53;0.10;;;0.10;;
72493;SDS011;60520;49.182;-0.348;2024-02-21T08:24:20;0.20;;;0.10;;
72493;SDS011;60520;49.182;-0.348;2024-02-21T08:26:49;0.10;;;0.10;;
72493;SDS011;60520;49.182;-0.348;2024-02-21T08:29:16;0.05;;;0.05;;
72493;SDS011;60520;49.182;-0.348;2024-02-21T08:31:43;0.17;;;0.10;;
72493;SDS011;60520;49.182;-0.348;2024-02-21T08:34:11;0.25;;;0.20;;
72493;SDS011;60520;49.182;-0.348;2024-02-21T08:36:38;0.10;;;0.08;;
72493;SDS011;60520;49.182;-0.348;2024-02-21T08:39:05;0.10;;;0.10;;
72493;SDS011;60520;49.182;-0.348;2024-02-21T08:41:34;0.20;;;0.10;;
72493;SDS011;60520;49.182;-0.348;2024-02-21T08:44:03;0.10;;;0.10;;
72493;SDS011;60520;49.182;-0.348;2024-02-21T08:46:30;0.13;;;0.10;;
72493;SDS011;60520;49.182;-0.348;2024-02-21T08:48:57;0.50;;;0.20;;
72493;SDS011;60520;49.182;-0.348;2024-02-21T08:51:24;0.20;;;0.10;;
72493;SDS011;60520;49.182;-0.348;2024-02-21T08:53:51;0.10;;;0.10;;
72493;SDS011;60520;49.182;-0.348;2024-02-21T08:56:19;0.15;;;0.15;;
72493;SDS011;60520;49.182;-0.348;2024-02-21T08:58:46;0.20;;;0.20;;
72493;SDS011;60520;49.182;-0.348;2024-02-21T09:01:14;0.52;;;0.20;;
72493;SDS011;60520;49.182;-0.348;2024-02-21T09:03:41;0.20;;;0.20;;
72493;SDS011;60520;49.182;-0.348;2024-02-21T09:06:10;0.30;;;0.20;;
72493;SDS011;60520;49.182;-0.348;2024-02-21T09:08:38;0.47;;;0.30;;
72493;SDS011;60520;49.182;-0.348;2024-02-21T09:11:07;0.20;;;0.20;;
72493;SDS011;60520;49.182;-0.348;2024-02-21T09:13:34;0.28;;;0.20;;
72493;SDS011;60520;49.182;-0.348;2024-02-21T09:16:01;0.20;;;0.13;;
72493;SDS011;60520;49.182;-0.348;2024-02-21T09:18:30;0.10;;;0.10;;
72493;SDS011;60520;49.182;-0.348;2024-02-21T09:20:57;0.20;;;0.20;;
72493;SDS011;60520;49.182;-0.348;2024-02-21T09:23:25;0.22;;;0.20;;
72493;SDS011;60520;49.182;-0.348;2024-02-21T09:25:52;0.40;;;0.20;;
72493;SDS011;60520;49.182;-0.348;2024-02-21T09:28:20;0.40;;;0.20;;
72493;SDS011;60520;49.182;-0.348;2024-02-21T09:30:47;0.20;;;0.20;;
72493;SDS011;60520;49.182;-0.348;2024-02-21T09:33:14;0.22;;;0.20;;
72493;SDS011;60520;49.182;-0.348;2024-02-21T09:35:43;0.40;;;0.30;;
72493;SDS011;60520;49.182;-0.348;2024-02-21T09:38:10;0.30;;;0.20;;
72493;SDS011;60520;49.182;-0.348;2024-02-21T09:40:37;0.30;;;0.20;;
72493;SDS011;60520;49.182;-0.348;2024-02-21T09:43:07;0.22;;;0.20;;
72493;SDS011;60520;49.182;-0.348;2024-02-21T09:45:34;0.65;;;0.20;;
72493;SDS011;60520;49.182;-0.348;2024-02-21T09:48:06;0.10;;;0.10;;
72493;SDS011;60520;49.182;-0.348;2024-02-21T09:50:37;0.20;;;0.10;;
72493;SDS011;60520;49.182;-0.348;2024-02-21T09:53:07;0.28;;;0.17;;
72493;SDS011;60520;49.182;-0.348;2024-02-21T09:55:34;0.25;;;0.20;;
72493;SDS011;60520;49.182;-0.348;2024-02-21T09:58:05;0.20;;;0.20;;
72493;SDS011;60520;49.182;-0.348;2024-02-21T10:00:32;0.32;;;0.20;;
72493;SDS011;60520;49.182;-0.348;2024-02-21T10:02:59;0.15;;;0.15;;
72493;SDS011;60520;49.182;-0.348;2024-02-21T10:05:26;0.20;;;0.10;;
72493;SDS011;60520;49.182;-0.348;2024-02-21T10:07:54;0.50;;;0.22;;
72493;SDS011;60520;49.182;-0.348;2024-02-21T10:10:23;0.20;;;0.10;;
72493;SDS011;60520;49.182;-0.348;2024-02-21T10:12:52;0.10;;;0.10;;
72493;SDS011;60520;49.182;-0.348;2024-02-21T10:15:20;0.30;;;0.30;;
72493;SDS011;60520;49.182;-0.348;2024-02-21T10:17:48;0.25;;;0.20;;
72493;SDS011;60520;49.182;-0.348;2024-02-21T10:20:16;0.30;;;0.20;;
72493;SDS011;60520;49.182;-0.348;2024-02-21T10:22:43;0.40;;;0.30;;
72493;SDS011;60520;49.182;-0.348;2024-02-21T10:25:10;0.20;;;0.20;;
72493;SDS011;60520;49.182;-0.348;2024-02-21T10:27:39;0.25;;;0.20;;
72493;SDS011;60520;49.182;-0.348;2024-02-21T10:30:07;0.20;;;0.20;;
72493;SDS011;60520;49.182;-0.348;2024-02-21T10:32:34;0.10;;;0.10;;
72493;SDS011;60520;49.182;-0.348;2024-02-21T10:35:02;0.52;;;0.22;;
72493;SDS011;60520;49.182;-0.348;2024-02-21T10:37:29;0.40;;;0.22;;
72493;SDS011;60520;49.182;-0.348;2024-02-21T10:39:57;0.93;;;0.35;;
72493;SDS011;60520;49.182;-0.348;2024-02-21T10:42:26;0.50;;;0.20;;
72493;SDS011;60520;49.182;-0.348;2024-02-21T10:45:00;0.20;;;0.20;;
72493;SDS011;60520;49.182;-0.348;2024-02-21T10:47:29;0.55;;;0.20;;
72493;SDS011;60520;49.182;-0.348;2024-02-21T10:49:59;0.30;;;0.20;;
72493;SDS011;60520;49.182;-0.348;2024-02-21T10:52:31;0.35;;;0.25;;
72493;SDS011;60520;49.182;-0.348;2024-02-21T10:55:00;0.60;;;0.38;;
72493;SDS011;60520;49.182;-0.348;2024-02-21T10:57:31;0.20;;;0.10;;
72493;SDS011;60520;49.182;-0.348;2024-02-21T10:59:59;0.20;;;0.20;;
72493;SDS011;60520;49.182;-0.348;2024-02-21T11:02:28;0.30;;;0.20;;
72493;SDS011;60520;49.182;-0.348;2024-02-21T11:04:56;0.30;;;0.20;;
72493;SDS011;60520;49.182;-0.348;2024-02-21T11:07:24;0.30;;;0.20;;
72493;SDS011;60520;49.182;-0.348;2024-02-21T11:09:51;0.15;;;0.10;;
72493;SDS011;60520;49.182;-0.348;2024-02-21T11:12:20;0.30;;;0.20;;
72493;SDS011;60520;49.182;-0.348;2024-02-21T11:14:47;0.82;;;0.30;;
72493;SDS011;60520;49.182;-0.348;2024-02-21T11:17:16;0.17;;;0.17;;
72493;SDS011;60520;49.182;-0.348;2024-02-21T11:19:43;0.30;;;0.20;;
72493;SDS011;60520;49.182;-0.348;2024-02-21T11:22:14;0.55;;;0.20;;
72493;SDS011;60520;49.182;-0.348;2024-02-21T11:24:42;0.13;;;0.13;;
72493;SDS011;60520;49.182;-0.348;2024-02-21T11:27:09;0.13;;;0.13;;
72493;SDS011;60520;49.182;-0.348;2024-02-21T11:29:42;0.40;;;0.20;;
72493;SDS011;60520;49.182;-0.348;2024-02-21T11:32:09;0.20;;;0.20;;
72493;SDS011;60520;49.182;-0.348;2024-02-21T11:34:38;0.55;;;0.30;;
72493;SDS011;60520;49.182;-0.348;2024-02-21T11:37:12;0.38;;;0.20;;
72493;SDS011;60520;49.182;-0.348;2024-02-21T11:39:40;0.20;;;0.20;;
72493;SDS011;60520;49.182;-0.348;2024-02-21T11:42:08;0.40;;;0.20;;
72493;SDS011;60520;49.182;-0.348;2024-02-21T11:44:37;0.30;;;0.20;;
72493;SDS011;60520;49.182;-0.348;2024-02-21T11:47:05;0.30;;;0.20;;
72493;SDS011;60520;49.182;-0.348;2024-02-21T11:49:35;0.40;;;0.25;;
72493;SDS011;60520;49.182;-0.348;2024-02-21T11:52:04;0.30;;;0.20;;
72493;SDS011;60520;49.182;-0.348;2024-02-21T11:54:32;0.40;;;0.20;;
72493;SDS011;60520;49.182;-0.348;2024-02-21T11:56:59;0.32;;;0.20;;
72493;SDS011;60520;49.182;-0.348;2024-02-21T11:59:26;0.20;;;0.17;;
72493;SDS011;60520;49.182;-0.348;2024-02-21T12:01:53;0.35;;;0.20;;
72493;SDS011;60520;49.182;-0.348;2024-02-21T12:04:21;0.40;;;0.20;;
72493;SDS011;60520;49.182;-0.348;2024-02-21T12:06:49;0.20;;;0.20;;
72493;SDS011;60520;49.182;-0.348;2024-02-21T12:09:18;0.20;;;0.10;;
72493;SDS011;60520;49.182;-0.348;2024-02-21T12:11:45;0.47;;;0.20;;
72493;SDS011;60520;49.182;-0.348;2024-02-21T12:14:24;0.70;;;0.25;;
72493;SDS011;60520;49.182;-0.348;2024-02-21T12:16:51;0.20;;;0.20;;
72493;SDS011;60520;49.182;-0.348;2024-02-21T12:19:18;0.25;;;0.20;;
72493;SDS011;60520;49.182;-0.348;2024-02-21T12:21:47;0.35;;;0.20;;
72493;SDS011;60520;49.182;-0.348;2024-02-21T12:24:15;0.20;;;0.20;;
72493;SDS011;60520;49.182;-0.348;2024-02-21T12:26:44;0.25;;;0.20;;
72493;SDS011;60520;49.182;-0.348;2024-02-21T12:29:11;0.28;;;0.20;;
72493;SDS011;60520;49.182;-0.348;2024-02-21T12:31:38;0.17;;;0.15;;
72493;SDS011;60520;49.182;-0.348;2024-02-21T12:34:05;0.20;;;0.20;;
72493;SDS011;60520;49.182;-0.348;2024-02-21T12:36:35;0.10;;;0.10;;
72493;SDS011;60520;49.182;-0.348;2024-02-21T12:39:03;0.20;;;0.20;;
72493;SDS011;60520;49.182;-0.348;2024-02-21T12:41:30;0.13;;;0.10;;
72493;SDS011;60520;49.182;-0.348;2024-02-21T12:43:59;0.30;;;0.20;;
72493;SDS011;60520;49.182;-0.348;2024-02-21T12:46:26;0.20;;;0.20;;
72493;SDS011;60520;49.182;-0.348;2024-02-21T12:48:53;0.30;;;0.30;;
72493;SDS011;60520;49.182;-0.348;2024-02-21T12:51:21;0.22;;;0.20;;
72493;SDS011;60520;49.182;-0.348;2024-02-21T12:53:48;0.10;;;0.10;;
72493;SDS011;60520;49.182;-0.348;2024-02-21T12:56:15;0.63;;;0.20;;
72493;SDS011;60520;49.182;-0.348;2024-02-21T12:58:43;0.22;;;0.20;;
72493;SDS011;60520;49.182;-0.348;2024-02-21T13:01:11;0.20;;;0.20;;
72493;SDS011;60520;49.182;-0.348;2024-02-21T13:03:38;0.38;;;0.20;;
72493;SDS011;60520;49.182;-0.348;2024-02-21T13:06:06;0.20;;;0.20;;
72493;SDS011;60520;49.182;-0.348;2024-02-21T13:08:35;0.30;;;0.10;;
72493;SDS011;60520;49.182;-0.348;2024-02-21T13:11:02;13.95;;;0.77;;
72493;SDS011;60520;49.182;-0.348;2024-02-21T13:13:30;7.68;;;0.45;;
72493;SDS011;60520;49.182;-0.348;2024-02-21T13:15:57;5.72;;;0.40;;
72493;SDS011;60520;49.182;-0.348;2024-02-21T13:18:26;4.28;;;0.32;;
72493;SDS011;60520;49.182;-0.348;2024-02-21T13:20:53;1.75;;;0.30;;
72493;SDS011;60520;49.182;-0.348;2024-02-21T13:23:21;1.52;;;0.38;;
72493;SDS011;60520;49.182;-0.348;2024-02-21T13:25:48;0.68;;;0.22;;
72493;SDS011;60520;49.182;-0.348;2024-02-21T13:28:15;0.57;;;0.40;;
72493;SDS011;60520;49.182;-0.348;2024-02-21T13:30:43;3.53;;;0.90;;
72493;SDS011;60520;49.182;-0.348;2024-02-21T13:33:10;1.45;;;0.40;;
72493;SDS011;60520;49.182;-0.348;2024-02-21T13:35:39;1.63;;;0.90;;
72493;SDS011;60520;49.182;-0.348;2024-02-21T13:38:06;1.40;;;0.68;;
72493;SDS011;60520;49.182;-0.348;2024-02-21T13:40:35;11.77;;;0.93;;
72493;SDS011;60520;49.182;-0.348;2024-02-21T13:43:02;2.30;;;0.45;;
72493;SDS011;60520;49.182;-0.348;2024-02-21T13:45:29;0.90;;;0.77;;
72493;SDS011;60520;49.182;-0.348;2024-02-21T13:47:56;1.50;;;0.90;;
72493;SDS011;60520;49.182;-0.348;2024-02-21T13:50:27;3.97;;;1.20;;
72493;SDS011;60520;49.182;-0.348;2024-02-21T13:52:57;87.10;;;6.40;;
72493;SDS011;60520;49.182;-0.348;2024-02-21T13:55:24;9.88;;;1.65;;
72493;SDS011;60520;49.182;-0.348;2024-02-21T13:57:52;6.72;;;1.90;;
72493;SDS011;60520;49.182;-0.348;2024-02-21T14:00:19;6.60;;;1.30;;
72493;SDS011;60520;49.182;-0.348;2024-02-21T14:02:46;3.35;;;1.10;;
72493;SDS011;60520;49.182;-0.348;2024-02-21T14:05:13;11.05;;;1.52;;
72493;SDS011;60520;49.182;-0.348;2024-02-21T14:07:41;3.22;;;1.35;;
72493;SDS011;60520;49.182;-0.348;2024-02-21T14:10:09;3.58;;;1.55;;
72493;SDS011;60520;49.182;-0.348;2024-02-21T14:12:36;3.90;;;1.70;;
72493;SDS011;60520;49.182;-0.348;2024-02-21T14:15:05;2.85;;;1.60;;
72493;SDS011;60520;49.182;-0.348;2024-02-21T14:17:34;2.22;;;1.50;;
72493;SDS011;60520;49.182;-0.348;2024-02-21T14:20:01;5.40;;;1.38;;
72493;SDS011;60520;49.182;-0.348;2024-02-21T14:22:28;3.80;;;1.38;;
72493;SDS011;60520;49.182;-0.348;2024-02-21T14:24:55;4.07;;;1.27;;
72493;SDS011;60520;49.182;-0.348;2024-02-21T14:27:24;2.42;;;1.35;;
72493;SDS011;60520;49.182;-0.348;2024-02-21T14:29:51;5.07;;;1.23;;
72493;SDS011;60520;49.182;-0.348;2024-02-21T14:32:18;3.00;;;1.20;;
72493;SDS011;60520;49.182;-0.348;2024-02-21T14:34:46;5.03;;;1.15;;
72493;SDS011;60520;49.182;-0.348;2024-02-21T14:37:14;4.35;;;1.27;;